SR6NWB-11 Weather Reports


Display with metric or nautical units.
time (UTC)temp
F
wind
direction
speed
MPH
gust
MPH
rain 1hr
in
rain 24hr
in
rain mn
in
humidity
%
barometer
mb
20260504140942 72 0 0.0 0.0 0.00 0.00 0.00 29 1017.9
20260504140144 72 0 0.0 0.0 0.00 0.00 0.00 29 1018.1
20260504110412 69 0 0.0 0.0 0.00 0.00 0.00 33 1018.6
20260504100112 66 0 0.0 0.0 0.00 0.00 0.00 35 1019.0
20260504081737 64 0 0.0 0.0 0.00 0.00 0.00 37 1018.8
20260504080747 63 0 0.0 0.0 0.00 0.00 0.00 37 1018.8
20260504060107 56 0 0.0 0.0 0.00 0.00 0.00 43 1018.7
20260504045907 53 0 0.0 0.0 0.00 0.00 0.00 44 1018.7
20260504044942 53 0 0.0 0.0 0.00 0.00 0.00 44 1018.7
20260504044042 53 0 0.0 0.0 0.00 0.00 0.00 44 1018.4
20260504043147 53 0 0.0 0.0 0.00 0.00 0.00 44 1018.1
20260504042317 53 0 0.0 0.0 0.00 0.00 0.00 43 1018.1
20260504041412 54 0 0.0 0.0 0.00 0.00 0.00 43 1018.1
20260504040552 54 0 0.0 0.0 0.00 0.00 0.00 43 1018.0
20260504035727 54 0 0.0 0.0 0.00 0.00 0.00 43 1017.9
20260504034742 54 0 0.0 0.0 0.00 0.00 0.00 42 1017.9
20260504033857 54 0 0.0 0.0 0.00 0.00 0.00 42 1017.9
20260504033007 54 0 0.0 0.0 0.00 0.00 0.00 42 1017.8
20260504032102 54 0 0.0 0.0 0.00 0.00 0.00 41 1017.8
20260504031122 55 0 0.0 0.0 0.00 0.00 0.00 41 1017.8
20260504030322 55 0 0.0 0.0 0.00 0.00 0.00 40 1017.8
20260504025507 55 0 0.0 0.0 0.00 0.00 0.00 40 1017.9
20260504024557 55 0 0.0 0.0 0.00 0.00 0.00 40 1017.9
20260504023620 55 0 0.0 0.0 0.00 0.00 0.00 39 1017.7
20260504022817 55 0 0.0 0.0 0.00 0.00 0.00 39 1017.8
20260504022012 55 0 0.0 0.0 0.00 0.00 0.00 39 1017.7
20260504021202 55 0 0.0 0.0 0.00 0.00 0.00 39 1017.8
20260504020322 55 0 0.0 0.0 0.00 0.00 0.00 39 1017.9
20260504015427 55 0 0.0 0.0 0.00 0.00 0.00 38 1017.7
20260504014512 55 0 0.0 0.0 0.00 0.00 0.00 38 1017.9
20260504013602 55 0 0.0 0.0 0.00 0.00 0.00 38 1017.8
20260504012752 55 0 0.0 0.0 0.00 0.00 0.00 38 1017.9
20260504011922 55 0 0.0 0.0 0.00 0.00 0.00 37 1017.9
20260504011117 55 0 0.0 0.0 0.00 0.00 0.00 37 1018.0
20260504010212 55 0 0.0 0.0 0.00 0.00 0.00 37 1017.9
20260504005333 55 0 0.0 0.0 0.00 0.00 0.00 37 1017.9
20260504004507 55 0 0.0 0.0 0.00 0.00 0.00 37 1018.0
20260504003532 55 0 0.0 0.0 0.00 0.00 0.00 37 1018.0
20260504002732 55 0 0.0 0.0 0.00 0.00 0.00 37 1017.9
20260504001852 55 0 0.0 0.0 0.00 0.00 0.00 36 1017.9
20260504001037 55 0 0.0 0.0 0.00 0.00 0.00 37 1018.1
20260504000057 55 0 0.0 0.0 0.00 0.00 0.00 36 1018.1
20260503235152 55 0 0.0 0.0 0.00 0.00 0.00 36 1018.1
20260503234157 56 0 0.0 0.0 0.00 0.00 0.00 36 1018.3
20260503233202 56 0 0.0 0.0 0.00 0.00 0.00 36 1018.4
20260503232227 56 0 0.0 0.0 0.00 0.00 0.00 36 1018.4
20260503231332 56 0 0.0 0.0 0.00 0.00 0.00 36 1018.5
20260503230502 56 0 0.0 0.0 0.00 0.00 0.00 36 1018.4
20260503225637 56 0 0.0 0.0 0.00 0.00 0.00 36 1018.2
20260503224757 57 0 0.0 0.0 0.00 0.00 0.00 36 1018.6
20260503223902 57 0 0.0 0.0 0.00 0.00 0.00 36 1018.6
20260503222932 57 0 0.0 0.0 0.00 0.00 0.00 36 1018.5
20260503221947 57 0 0.0 0.0 0.00 0.00 0.00 36 1018.4
20260503221117 57 0 0.0 0.0 0.00 0.00 0.00 36 1018.6
20260503220252 57 0 0.0 0.0 0.00 0.00 0.00 36 1018.7
20260503215402 58 0 0.0 0.0 0.00 0.00 0.00 35 1018.8
20260503214552 58 0 0.0 0.0 0.00 0.00 0.00 35 1018.8
20260503213652 58 0 0.0 0.0 0.00 0.00 0.00 35 1018.8
20260503212800 58 0 0.0 0.0 0.00 0.00 0.00 34 1018.8
20260503211927 58 0 0.0 0.0 0.00 0.00 0.00 34 1018.7
20260503211102 59 0 0.0 0.0 0.00 0.00 0.00 33 1018.6
20260503210222 59 0 0.0 0.0 0.00 0.00 0.00 33 1018.7
20260503205322 59 0 0.0 0.0 0.00 0.00 0.00 32 1018.8
20260503204412 59 0 0.0 0.0 0.00 0.00 0.00 32 1018.9
20260503203457 59 0 0.0 0.0 0.00 0.00 0.00 31 1019.0
20260503202457 59 0 0.0 0.0 0.00 0.00 0.00 31 1018.9
20260503201542 59 0 0.0 0.0 0.00 0.00 0.00 30 1018.9
20260503200612 59 0 0.0 0.0 0.00 0.00 0.00 29 1019.0
20260503195612 60 0 0.0 0.0 0.00 0.00 0.00 29 1019.2
20260503194802 60 0 0.0 0.0 0.00 0.00 0.00 29 1019.2
20260503193947 60 0 0.0 0.0 0.00 0.00 0.00 28 1019.1
20260503192952 60 0 0.0 0.0 0.00 0.00 0.00 28 1019.3
20260503192107 60 0 0.0 0.0 0.00 0.00 0.00 28 1019.2
20260503191112 60 0 0.0 0.0 0.00 0.00 0.00 27 1019.3
20260503190122 61 0 0.0 0.0 0.00 0.00 0.00 27 1019.2
20260503185227 61 0 0.0 0.0 0.00 0.00 0.00 27 1019.2
20260503184227 62 0 0.0 0.0 0.00 0.00 0.00 26 1019.3
20260503183327 62 0 0.0 0.0 0.00 0.00 0.00 26 1019.1
20260503182407 62 0 0.0 0.0 0.00 0.00 0.00 26 1019.1
20260503181457 62 0 0.0 0.0 0.00 0.00 0.00 25 1019.0
20260503180647 63 0 0.0 0.0 0.00 0.00 0.00 25 1019.0
20260503175707 63 0 0.0 0.0 0.00 0.00 0.00 24 1019.0
20260503174747 64 0 0.0 0.0 0.00 0.00 0.00 24 1019.0
20260503173837 64 0 0.0 0.0 0.00 0.00 0.00 23 1019.0
20260503172847 65 0 0.0 0.0 0.00 0.00 0.00 23 1019.1
20260503171952 65 0 0.0 0.0 0.00 0.00 0.00 23 1019.0
20260503171057 65 0 0.0 0.0 0.00 0.00 0.00 23 1019.1
20260503170226 65 0 0.0 0.0 0.00 0.00 0.00 23 1019.1
20260503150247 73 0 0.0 0.0 0.00 0.00 0.00 18 1019.5